Time;durP1;ratioP1;P1;durP2;ratioP2;P2;SDS_P1;SDS_P2;PMS_P1;PMS_P2;Temp;Humidity;BMP_temperature;BMP_pressure;BME280_temperature;BME280_humidity;BME280_pressure;Samples;Min_cycle;Max_cycle;Signal;HPM_P1;HPM_P2
2021/08/15 00:00:38;;;;;;;15.15;7.18;;;;;;;18.91;65.09;101623.47;5033965;28;20045;-61
2021/08/15 00:03:06;;;;;;;12.35;7.20;;;;;;;18.88;65.17;101615.78;5033794;28;20100;-61
2021/08/15 00:05:33;;;;;;;12.02;6.60;;;;;;;18.87;65.39;101616.91;5032434;28;20053;-60
2021/08/15 00:08:01;;;;;;;15.07;7.30;;;;;;;18.89;64.99;101612.72;5033508;28;20049;-60
2021/08/15 00:10:28;;;;;;;14.98;7.55;;;;;;;18.90;65.06;101613.53;5033182;28;20049;-61
2021/08/15 00:12:56;;;;;;;15.07;7.43;;;;;;;18.89;65.23;101600.88;5033741;28;20053;-60
2021/08/15 00:15:24;;;;;;;14.07;7.00;;;;;;;18.88;65.28;101593.69;5033499;28;20120;-60
2021/08/15 00:17:51;;;;;;;13.65;7.80;;;;;;;18.88;65.45;101596.44;5033499;28;20400;-60
2021/08/15 00:20:20;;;;;;;15.68;8.07;;;;;;;18.85;65.58;101605.34;5033601;28;20095;-61
2021/08/15 00:22:47;;;;;;;13.00;6.40;;;;;;;18.84;65.63;101600.97;5033116;28;20068;-61
2021/08/15 00:25:17;;;;;;;16.08;7.55;;;;;;;18.84;65.88;101607.28;5033133;28;20050;-61
2021/08/15 00:27:46;;;;;;;14.93;7.22;;;;;;;18.86;65.67;101613.34;5033438;28;20037;-61
2021/08/15 00:30:15;;;;;;;15.48;7.47;;;;;;;18.87;65.57;101608.63;5032992;28;20060;-58
2021/08/15 00:32:46;;;;;;;13.57;7.22;;;;;;;18.89;65.67;101611.91;5032999;28;20050;-61
2021/08/15 00:35:14;;;;;;;12.40;7.05;;;;;;;18.88;65.71;101607.50;5033412;28;20447;-60
2021/08/15 00:37:42;;;;;;;12.48;7.22;;;;;;;18.88;65.74;101599.22;5033027;28;20045;-60
2021/08/15 00:40:11;;;;;;;16.52;7.60;;;;;;;18.91;65.61;101604.13;5032956;28;20125;-61
2021/08/15 00:42:39;;;;;;;12.85;7.03;;;;;;;18.96;65.38;101601.28;5032936;28;20042;-61
2021/08/15 00:45:08;;;;;;;11.35;6.40;;;;;;;19.02;65.29;101604.75;5032836;28;20045;-60
2021/08/15 00:47:35;;;;;;;16.08;7.60;;;;;;;19.06;65.07;101603.03;5031999;28;20042;-60
2021/08/15 00:50:04;;;;;;;15.00;7.97;;;;;;;19.09;64.89;101596.88;5032827;28;20511;-61
2021/08/15 00:52:32;;;;;;;14.30;8.20;;;;;;;19.09;64.82;101594.94;5032685;28;20041;-60
2021/08/15 00:55:01;;;;;;;14.48;8.23;;;;;;;19.06;64.85;101600.25;5032489;28;20506;-61
2021/08/15 00:57:30;;;;;;;17.42;7.93;;;;;;;19.03;65.15;101600.88;5032017;28;20443;-60
2021/08/15 01:00:07;;;;;;;12.68;7.28;;;;;;;19.03;64.99;101596.16;5031132;28;20040;-60
2021/08/15 01:02:36;;;;;;;14.68;7.88;;;;;;;19.04;65.02;101595.03;5033037;28;20415;-60
2021/08/15 01:05:05;;;;;;;15.50;7.72;;;;;;;19.04;64.94;101591.47;5032846;28;20029;-61
2021/08/15 01:07:32;;;;;;;18.23;8.45;;;;;;;19.01;65.21;101584.59;5032291;28;20395;-60
2021/08/15 01:10:00;;;;;;;16.88;8.45;;;;;;;18.99;65.29;101589.59;5032562;28;20052;-61
2021/08/15 01:12:28;;;;;;;13.88;7.80;;;;;;;18.97;65.38;101583.56;5032754;28;20042;-59
2021/08/15 01:14:59;;;;;;;15.00;7.50;;;;;;;18.92;65.57;101575.38;5032410;28;20033;-61
2021/08/15 01:17:27;;;;;;;17.60;9.35;;;;;;;18.86;65.75;101571.09;5032725;28;20048;-60
2021/08/15 01:19:58;;;;;;;15.90;8.55;;;;;;;18.85;66.00;101572.22;5031431;28;20037;-61
2021/08/15 01:22:27;;;;;;;18.88;8.98;;;;;;;18.87;66.09;101575.50;5037833;28;20403;-61
2021/08/15 01:24:55;;;;;;;17.15;8.85;;;;;;;18.88;66.06;101558.63;5039842;28;20037;-60
2021/08/15 01:27:26;;;;;;;18.55;8.68;;;;;;;18.90;65.72;101566.59;5032228;28;20120;-60
2021/08/15 01:29:53;;;;;;;15.68;8.63;;;;;;;18.88;66.06;101563.31;5031226;28;20407;-60
2021/08/15 01:32:21;;;;;;;17.88;8.27;;;;;;;18.88;65.89;101566.06;5030963;28;20049;-60
2021/08/15 01:34:49;;;;;;;17.95;9.13;;;;;;;18.85;66.05;101563.94;5032365;28;20103;-61
2021/08/15 01:37:21;;;;;;;18.13;9.50;;;;;;;18.83;66.14;101564.25;5031722;28;20087;-61
2021/08/15 01:39:49;;;;;;;17.75;8.73;;;;;;;18.84;66.17;101560.34;5032092;28;20037;-61
2021/08/15 01:42:17;;;;;;;18.35;9.50;;;;;;;18.87;66.26;101550.63;5042712;28;20056;-61
2021/08/15 01:44:45;;;;;;;14.75;8.70;;;;;;;18.88;66.23;101543.97;5034168;28;20061;-61
2021/08/15 01:47:12;;;;;;;16.02;9.23;;;;;;;18.89;66.04;101551.16;5032125;28;20038;-61
2021/08/15 01:49:40;;;;;;;16.00;9.10;;;;;;;18.89;66.09;101548.41;5031977;28;20439;-58
2021/08/15 01:52:07;;;;;;;17.20;9.50;;;;;;;18.88;66.23;101552.25;5039097;28;20056;-61
2021/08/15 01:54:35;;;;;;;16.67;9.00;;;;;;;18.84;66.23;101542.97;5036710;28;20034;-60
2021/08/15 01:57:03;;;;;;;15.15;9.57;;;;;;;18.81;66.23;101538.88;5032331;28;20045;-61
2021/08/15 01:59:31;;;;;;;18.33;9.52;;;;;;;18.73;66.46;101540.38;5032118;28;20043;-61
2021/08/15 02:01:59;;;;;;;16.17;8.93;;;;;;;18.66;66.71;101537.19;5031828;28;20452;-60
2021/08/15 02:04:27;;;;;;;16.75;8.93;;;;;;;18.62;67.04;101529.84;5031778;28;20038;-60
2021/08/15 02:06:55;;;;;;;18.13;9.38;;;;;;;18.63;66.89;101525.94;5031467;28;20048;-60
2021/08/15 02:09:22;;;;;;;16.55;9.48;;;;;;;18.61;66.73;101525.44;5035813;28;20033;-57
2021/08/15 02:11:50;;;;;;;14.10;9.10;;;;;;;18.57;66.83;101527.16;5035906;28;20050;-61
2021/08/15 02:14:17;;;;;;;17.10;9.57;;;;;;;18.48;67.26;101522.34;5036280;28;20052;-60
2021/08/15 02:16:45;;;;;;;14.23;8.15;;;;;;;18.50;67.24;101514.59;5039552;28;20045;-60
2021/08/15 02:19:12;;;;;;;15.35;8.10;;;;;;;18.55;66.90;101513.69;5035601;28;20492;-60
2021/08/15 02:21:40;;;;;;;15.52;9.30;;;;;;;18.53;66.91;101510.41;5035610;28;20148;-61
2021/08/15 02:24:09;;;;;;;13.95;7.97;;;;;;;18.49;66.86;101510.19;5035660;28;20392;-60
2021/08/15 02:26:37;;;;;;;19.98;8.70;;;;;;;18.48;66.98;101502.22;5035930;28;20042;-59
2021/08/15 02:29:06;;;;;;;16.52;8.98;;;;;;;18.49;67.10;101503.84;5035509;28;20161;-59
2021/08/15 02:31:34;;;;;;;14.38;9.00;;;;;;;18.51;66.73;101496.09;5035531;28;20045;-61
2021/08/15 02:34:01;;;;;;;18.45;10.05;;;;;;;18.47;67.00;101497.81;5035463;28;20048;-60
2021/08/15 02:36:29;;;;;;;16.48;10.25;;;;;;;18.43;67.08;101491.28;5035194;28;20456;-61
2021/08/15 02:38:56;;;;;;;13.77;7.78;;;;;;;18.43;67.12;101489.34;5035561;28;20037;-59
2021/08/15 02:41:24;;;;;;;17.20;9.23;;;;;;;18.46;66.92;101493.44;5035321;28;20045;-61
2021/08/15 02:43:51;;;;;;;16.42;8.82;;;;;;;18.48;66.93;101485.66;5035513;28;20399;-61
2021/08/15 02:46:19;;;;;;;17.50;9.00;;;;;;;18.48;66.79;101491.19;5035069;28;20046;-61
2021/08/15 02:48:47;;;;;;;15.80;9.35;;;;;;;18.44;66.96;101485.44;5035370;28;20042;-59
2021/08/15 02:51:14;;;;;;;16.88;9.63;;;;;;;18.38;66.97;101486.69;5034898;28;20037;-60
2021/08/15 02:53:42;;;;;;;15.73;9.60;;;;;;;18.35;67.40;101483.69;5035192;28;20045;-60
2021/08/15 02:56:09;;;;;;;16.85;8.60;;;;;;;18.34;67.23;101482.06;5034351;28;20049;-60
2021/08/15 02:58:37;;;;;;;19.52;10.85;;;;;;;18.35;67.10;101469.91;5035075;28;20041;-59
2021/08/15 03:01:05;;;;;;;16.23;9.40;;;;;;;18.29;67.35;101461.72;5035029;28;20037;-59
2021/08/15 03:03:32;;;;;;;18.15;9.65;;;;;;;18.29;67.49;101460.91;5034584;28;20069;-59
2021/08/15 03:06:00;;;;;;;17.33;10.32;;;;;;;18.28;67.55;101462.06;5033529;28;20049;-59
2021/08/15 03:08:28;;;;;;;18.27;9.63;;;;;;;18.23;67.53;101467.63;5034876;28;20459;-59
2021/08/15 03:10:55;;;;;;;18.95;9.98;;;;;;;18.19;67.74;101461.09;5034837;28;20048;-60
2021/08/15 03:13:23;;;;;;;19.85;10.50;;;;;;;18.14;67.99;101452.94;5034880;28;20038;-59
2021/08/15 03:15:50;;;;;;;15.23;10.05;;;;;;;18.09;68.23;101453.84;5034765;28;20048;-62
2021/08/15 03:18:18;;;;;;;17.58;9.63;;;;;;;18.07;68.34;101459.66;5034011;28;20049;-59
2021/08/15 03:20:46;;;;;;;17.58;9.50;;;;;;;18.13;68.36;101454.84;5033799;28;20045;-60
2021/08/15 03:23:14;;;;;;;14.35;8.85;;;;;;;18.18;67.98;101448.41;5034395;28;20508;-59
2021/08/15 03:25:41;;;;;;;18.45;10.38;;;;;;;18.22;67.73;101443.94;5034418;28;20233;-60
2021/08/15 03:28:09;;;;;;;15.98;8.85;;;;;;;18.20;67.90;101441.47;5034565;28;20041;-62
2021/08/15 03:30:37;;;;;;;15.35;9.75;;;;;;;18.17;67.81;101447.63;5034196;28;20042;-62
2021/08/15 03:33:04;;;;;;;15.18;8.68;;;;;;;18.14;67.94;101447.41;5034129;28;20048;-61
2021/08/15 03:35:32;;;;;;;15.82;9.30;;;;;;;18.13;67.95;101452.09;5034010;28;20049;-61
2021/08/15 03:37:59;;;;;;;13.60;8.45;;;;;;;18.13;68.16;101457.59;5034482;28;20042;-61
2021/08/15 03:40:27;;;;;;;16.15;10.07;;;;;;;18.15;68.03;101466.41;5034373;28;20045;-61
2021/08/15 03:42:54;;;;;;;16.60;8.98;;;;;;;18.17;68.14;101457.84;5034312;28;20056;-60
2021/08/15 03:45:22;;;;;;;16.58;9.52;;;;;;;18.20;67.96;101463.53;5034081;28;20057;-60
2021/08/15 03:47:51;;;;;;;14.98;9.38;;;;;;;18.21;67.89;101458.88;5033840;28;20045;-61
2021/08/15 03:50:20;;;;;;;13.95;7.53;;;;;;;18.26;67.87;101456.81;5034338;28;20045;-60
2021/08/15 03:52:48;;;;;;;14.55;7.90;;;;;;;18.29;67.67;101464.47;5033971;28;20046;-61
2021/08/15 03:55:15;;;;;;;14.48;8.68;;;;;;;18.31;67.68;101461.44;5034239;28;20034;-61
2021/08/15 03:57:43;;;;;;;19.13;9.38;;;;;;;18.30;67.56;101457.84;5033755;28;20491;-60
2021/08/15 04:00:11;;;;;;;17.23;8.98;;;;;;;18.30;67.58;101459.78;5033687;28;20033;-61
2021/08/15 04:02:39;;;;;;;14.02;8.68;;;;;;;18.29;67.69;101461.72;5033686;28;20049;-60
2021/08/15 04:05:07;;;;;;;15.25;7.72;;;;;;;18.29;67.74;101458.16;5033812;28;20041;-60
2021/08/15 04:07:34;;;;;;;15.75;8.52;;;;;;;18.28;67.61;101464.81;5034017;28;20041;-60
2021/08/15 04:10:03;;;;;;;12.32;7.40;;;;;;;18.29;67.73;101471.94;5033618;28;20044;-61
2021/08/15 04:12:31;;;;;;;16.95;7.60;;;;;;;18.26;67.84;101454.06;5032457;28;20041;-61
2021/08/15 04:14:59;;;;;;;17.45;8.32;;;;;;;18.25;67.93;101451.59;5033252;28;20492;-60
2021/08/15 04:17:27;;;;;;;15.25;8.68;;;;;;;18.25;67.66;101454.34;5033366;28;20048;-61
2021/08/15 04:19:54;;;;;;;16.83;9.90;;;;;;;18.25;67.89;101465.41;5033601;28;20068;-59
2021/08/15 04:22:22;;;;;;;18.60;9.10;;;;;;;18.23;67.88;101465.72;5033614;28;20037;-59
2021/08/15 04:24:49;;;;;;;12.88;8.20;;;;;;;18.24;67.80;101464.59;5033410;28;20041;-61
2021/08/15 04:27:17;;;;;;;23.83;8.55;;;;;;;18.25;67.92;101471.72;5033461;28;20049;-61
2021/08/15 04:29:44;;;;;;;12.77;8.27;;;;;;;18.26;67.92;101461.53;5033450;28;20366;-59
2021/08/15 04:32:12;;;;;;;14.73;8.20;;;;;;;18.24;67.86;101464.59;5032499;28;20061;-63
2021/08/15 04:34:39;;;;;;;15.15;8.85;;;;;;;18.24;67.93;101464.59;5033462;28;20038;-63
2021/08/15 04:37:08;;;;;;;15.27;9.00;;;;;;;18.25;68.04;101451.59;5033380;28;20045;-60
2021/08/15 04:39:37;;;;;;;17.77;8.75;;;;;;;18.26;68.16;101451.31;5033035;28;20045;-61
2021/08/15 04:42:04;;;;;;;14.48;8.20;;;;;;;18.28;68.01;101442.75;5033376;28;20088;-60
2021/08/15 04:44:32;;;;;;;17.45;10.20;;;;;;;18.25;68.25;101441.38;5032604;28;20500;-60
2021/08/15 04:47:00;;;;;;;20.00;11.00;;;;;;;18.24;68.08;101438.94;5032166;28;20042;-60
2021/08/15 04:49:27;;;;;;;13.48;8.63;;;;;;;18.22;68.45;101447.50;5038749;28;20037;-61
2021/08/15 04:51:55;;;;;;;16.08;9.05;;;;;;;18.23;68.42;101440.88;5044071;28;20029;-59
2021/08/15 04:54:27;;;;;;;13.48;7.90;;;;;;;18.28;68.62;101443.56;5044743;28;20049;-57
2021/08/15 04:56:55;;;;;;;15.65;8.23;;;;;;;18.29;68.56;101450.69;5044133;28;20037;-57
2021/08/15 04:59:23;;;;;;;12.63;7.22;;;;;;;18.33;68.39;101444.56;5046065;28;20044;-57
2021/08/15 05:01:51;;;;;;;13.13;8.23;;;;;;;18.33;68.61;101445.41;5042487;28;20484;-57
2021/08/15 05:04:19;;;;;;;14.68;8.20;;;;;;;18.31;68.67;101442.94;5047052;28;20092;-61
2021/08/15 05:06:47;;;;;;;16.92;9.45;;;;;;;18.31;68.90;101431.91;5041658;28;20041;-57
2021/08/15 05:09:14;;;;;;;15.48;9.38;;;;;;;18.30;68.90;101433.03;5046851;28;20048;-61
2021/08/15 05:11:42;;;;;;;14.23;8.77;;;;;;;18.29;68.64;101425.03;5042875;28;20053;-59
2021/08/15 05:14:09;;;;;;;15.65;8.80;;;;;;;18.33;68.90;101439.03;5045063;28;20037;-61
2021/08/15 05:16:37;;;;;;;17.25;9.35;;;;;;;18.34;68.89;101435.16;5044228;28;20492;-59
2021/08/15 05:19:05;;;;;;;16.27;9.02;;;;;;;18.37;69.00;101431.78;5043844;28;20072;-60
2021/08/15 05:21:32;;;;;;;15.82;8.60;;;;;;;18.36;68.91;101438.44;5037206;28;20045;-59
2021/08/15 05:24:00;;;;;;;21.45;10.10;;;;;;;18.35;68.85;101436.78;5031889;28;20049;-62
2021/08/15 05:26:27;;;;;;;18.55;10.50;;;;;;;18.34;68.94;101435.97;5032314;28;20045;-61
2021/08/15 05:28:55;;;;;;;17.75;9.85;;;;;;;18.35;69.04;101439.56;5031400;28;20052;-61
2021/08/15 05:31:23;;;;;;;17.90;9.73;;;;;;;18.33;69.09;101428.84;5032134;28;20170;-60
2021/08/15 05:33:50;;;;;;;18.05;10.02;;;;;;;18.34;69.15;101421.38;5032189;28;20042;-59
2021/08/15 05:36:18;;;;;;;15.07;9.15;;;;;;;18.37;69.07;101429.03;5032029;28;20488;-60
2021/08/15 05:38:45;;;;;;;16.65;9.43;;;;;;;18.40;69.06;101422.91;5032213;28;20053;-57
2021/08/15 05:41:13;;;;;;;17.00;9.30;;;;;;;18.39;69.04;101422.09;5031862;28;20045;-59
2021/08/15 05:43:40;;;;;;;15.52;9.77;;;;;;;18.42;69.09;101409.63;5030825;28;20045;-57
2021/08/15 05:46:09;;;;;;;18.50;10.80;;;;;;;18.42;69.13;101406.84;4338497;28;10000484;-59
2021/08/15 05:48:37;;;;;;;17.85;10.18;;;;;;;18.40;69.04;101409.09;5029292;28;20400;-61
2021/08/15 05:51:05;;;;;;;16.42;10.45;;;;;;;18.38;69.37;101420.47;5029817;28;20041;-61
2021/08/15 05:53:33;;;;;;;15.40;9.75;;;;;;;18.36;69.29;101411.66;5029773;28;20045;-60
2021/08/15 05:56:01;;;;;;;16.90;9.43;;;;;;;18.34;69.55;101411.16;5029077;28;20497;-61
2021/08/15 05:58:28;;;;;;;20.45;11.65;;;;;;;18.32;69.69;101410.63;5029347;28;20052;-61
2021/08/15 06:00:56;;;;;;;16.52;9.45;;;;;;;18.33;69.89;101414.22;5029761;28;20050;-61
2021/08/15 06:03:24;;;;;;;14.13;9.98;;;;;;;18.34;69.78;101407.59;5029694;28;20099;-59
2021/08/15 06:05:51;;;;;;;16.08;9.38;;;;;;;18.35;69.88;101410.03;5037078;28;20047;-60
2021/08/15 06:08:19;;;;;;;14.93;9.88;;;;;;;18.34;70.04;101419.44;5041055;28;20041;-61
2021/08/15 06:10:47;;;;;;;18.42;10.35;;;;;;;18.36;70.01;101410.84;5039295;28;20491;-58
2021/08/15 06:13:15;;;;;;;17.92;9.93;;;;;;;18.40;69.74;101407.19;5042082;28;20120;-61
2021/08/15 06:15:42;;;;;;;19.25;10.00;;;;;;;18.48;69.72;101408.41;5044207;28;20041;-60
2021/08/15 06:18:10;;;;;;;20.38;11.23;;;;;;;18.51;69.68;101405.84;5043610;28;20041;-60
2021/08/15 06:20:38;;;;;;;19.58;11.38;;;;;;;18.47;69.76;101398.47;5039187;28;20029;-60
2021/08/15 06:23:05;;;;;;;16.60;10.20;;;;;;;18.51;69.75;101399.50;5029179;28;20504;-61
2021/08/15 06:25:33;;;;;;;16.75;9.43;;;;;;;18.52;69.70;101398.38;5028798;28;20056;-61
2021/08/15 06:28:00;;;;;;;18.15;10.43;;;;;;;18.52;69.72;101396.44;5029342;28;20029;-61
2021/08/15 06:30:28;;;;;;;21.58;11.15;;;;;;;18.52;69.95;101396.44;5029260;28;20431;-61
2021/08/15 06:32:56;;;;;;;16.52;9.30;;;;;;;18.54;69.70;101401.63;5029105;28;20041;-61
2021/08/15 06:35:26;;;;;;;14.20;9.18;;;;;;;18.53;69.97;101398.06;5029755;28;20048;-61
2021/08/15 06:37:55;;;;;;;15.25;8.88;;;;;;;18.54;70.15;101398.88;5029475;28;20048;-61
2021/08/15 06:40:27;;;;;;;17.08;9.85;;;;;;;18.56;69.83;101398.56;5028840;28;20511;-61
2021/08/15 06:43:08;;;;;;;16.08;9.02;;;;;;;18.56;69.76;101396.63;5038339;28;20049;-57
2021/08/15 06:45:37;;;;;;;17.50;10.25;;;;;;;18.56;70.26;101396.63;5037690;28;20049;-58
2021/08/15 06:48:05;;;;;;;17.27;10.05;;;;;;;18.60;70.08;101394.91;5040285;28;20399;-57
2021/08/15 06:50:33;;;;;;;17.92;9.07;;;;;;;18.62;69.93;101392.66;5037558;28;20049;-61
2021/08/15 06:53:01;;;;;;;19.65;10.98;;;;;;;18.66;69.62;101382.59;5041278;28;20503;-61
2021/08/15 06:55:29;;;;;;;16.17;10.10;;;;;;;18.67;69.72;101381.50;5046218;28;20037;-61
2021/08/15 06:57:57;;;;;;;16.23;8.73;;;;;;;18.69;69.62;101381.19;5046328;28;20752;-62
2021/08/15 07:00:25;;;;;;;17.67;10.13;;;;;;;18.70;69.78;101378.09;5045324;28;20048;-61
2021/08/15 07:02:52;;;;;;;17.08;8.95;;;;;;;18.76;69.52;101375.22;5047967;28;20051;-60
2021/08/15 07:05:21;;;;;;;16.55;9.43;;;;;;;18.82;69.14;101382.31;5045024;28;20099;-61
2021/08/15 07:07:50;;;;;;;22.40;13.23;;;;;;;18.76;69.31;101381.63;5049032;28;20056;-58
2021/08/15 07:10:17;;;;;;;20.38;12.25;;;;;;;18.70;69.88;101383.63;5043140;28;20504;-62
2021/08/15 07:12:48;;;;;;;25.75;13.20;;;;;;;18.67;69.84;101378.75;5049125;28;20128;-59
2021/08/15 07:15:16;;;;;;;21.10;12.10;;;;;;;18.65;70.03;101378.22;5043555;28;20050;-62
2021/08/15 07:17:44;;;;;;;22.42;11.55;;;;;;;18.66;69.80;101374.31;5040860;28;20128;-61
2021/08/15 07:20:12;;;;;;;21.75;11.68;;;;;;;18.67;69.62;101373.22;5044732;28;20033;-60
2021/08/15 07:22:40;;;;;;;22.73;12.25;;;;;;;18.69;69.35;101370.16;5034588;28;20037;-61
2021/08/15 07:25:08;;;;;;;22.63;12.73;;;;;;;18.68;69.48;101374.84;5034126;28;20389;-58
2021/08/15 07:27:36;;;;;;;20.25;12.75;;;;;;;18.68;69.76;101366.56;5034517;28;20128;-53
2021/08/15 07:30:04;;;;;;;25.30;12.93;;;;;;;18.68;69.63;101365.75;5034317;28;20100;-54
2021/08/15 07:32:32;;;;;;;23.02;13.10;;;;;;;18.72;69.63;101367.56;5034414;28;20048;-56
2021/08/15 07:35:03;;;;;;;24.80;12.88;;;;;;;18.71;69.84;101365.97;5034107;28;20507;-57
2021/08/15 07:37:30;;;;;;;23.75;13.13;;;;;;;18.70;69.86;101378.09;5034306;28;20042;-56
2021/08/15 07:39:58;;;;;;;22.13;13.02;;;;;;;18.70;69.60;101369.81;5033755;28;20068;-56
2021/08/15 07:42:25;;;;;;;22.83;12.55;;;;;;;18.70;70.14;101378.09;5046963;28;20407;-56
2021/08/15 07:44:56;;;;;;;17.92;11.27;;;;;;;18.71;70.27;101377.00;5034235;28;20049;-56
2021/08/15 07:47:24;;;;;;;23.90;11.50;;;;;;;18.77;70.06;101371.41;5032761;28;20100;-56
2021/08/15 07:49:51;;;;;;;18.48;10.15;;;;;;;18.82;70.06;101379.56;5034248;28;20042;-56
2021/08/15 07:52:19;;;;;;;26.20;14.05;;;;;;;18.85;70.17;101373.41;5033760;28;20037;-56
2021/08/15 07:54:47;;;;;;;21.27;12.93;;;;;;;18.87;70.19;101365.63;5036557;28;20044;-57
2021/08/15 07:57:16;;;;;;;21.83;12.10;;;;;;;18.93;70.21;101373.50;5042630;28;20042;-54
2021/08/15 07:59:43;;;;;;;21.75;13.57;;;;;;;18.97;69.75;101370.91;5040106;28;20121;-52
2021/08/15 08:02:11;;;;;;;21.83;13.18;;;;;;;19.03;69.34;101368.88;5041913;28;20038;-54
2021/08/15 08:04:39;;;;;;;17.48;11.40;;;;;;;19.07;69.35;101370.69;5044228;28;20095;-56
2021/08/15 08:07:07;;;;;;;18.50;11.82;;;;;;;19.13;69.17;101372.19;5040426;28;20038;-55
2021/08/15 08:09:34;;;;;;;24.65;12.60;;;;;;;19.18;69.13;101373.22;5045114;28;20052;-52
2021/08/15 08:12:02;;;;;;;23.52;11.73;;;;;;;19.22;69.30;101365.91;5039899;28;20061;-54
2021/08/15 08:14:30;;;;;;;17.00;9.82;;;;;;;19.24;68.53;101377.47;5045343;28;20044;-57
2021/08/15 08:16:58;;;;;;;18.40;10.90;;;;;;;19.27;68.26;101374.91;5040250;28;20052;-55
2021/08/15 08:19:25;;;;;;;20.33;10.95;;;;;;;19.33;67.60;101367.31;5043771;28;20379;-55
2021/08/15 08:21:53;;;;;;;20.67;10.50;;;;;;;19.36;67.54;101370.28;5035558;28;20041;-56
2021/08/15 08:24:21;;;;;;;18.58;10.25;;;;;;;19.37;66.55;101373.84;5033062;28;20045;-55
2021/08/15 08:26:48;;;;;;;15.93;8.10;;;;;;;19.40;66.63;101362.16;5033445;28;20042;-56
2021/08/15 08:29:16;;;;;;;17.90;9.77;;;;;;;19.41;66.39;101371.25;5033237;28;20037;-54
2021/08/15 08:31:44;;;;;;;16.52;8.85;;;;;;;19.42;65.98;101359.91;5033073;28;20049;-55
2021/08/15 08:34:11;;;;;;;17.15;8.70;;;;;;;19.47;66.07;101359.78;5033034;28;20554;-55
2021/08/15 08:36:39;;;;;;;16.80;8.15;;;;;;;19.53;66.05;101363.22;5032941;28;20049;-55
2021/08/15 08:39:06;;;;;;;14.65;7.97;;;;;;;19.57;65.60;101362.25;5031379;28;20045;-52
2021/08/15 08:41:35;;;;;;;15.85;7.50;;;;;;;19.62;65.51;101363.28;5033240;28;20435;-53
2021/08/15 08:44:02;;;;;;;16.00;7.13;;;;;;;19.65;65.34;101359.88;5032568;28;20053;-55
2021/08/15 08:46:31;;;;;;;12.85;7.20;;;;;;;19.65;64.97;101359.88;5031904;28;20050;-56
2021/08/15 08:48:59;;;;;;;13.10;6.25;;;;;;;19.65;65.05;101359.88;5032020;28;20053;-54
2021/08/15 08:51:26;;;;;;;12.02;6.53;;;;;;;19.68;65.37;101351.00;5032166;28;20407;-54
2021/08/15 08:53:54;;;;;;;15.70;7.57;;;;;;;19.73;65.57;101353.63;5032574;28;20037;-56
2021/08/15 08:56:22;;;;;;;14.63;6.65;;;;;;;19.78;65.60;101342.41;5032914;28;20423;-54
2021/08/15 08:58:50;;;;;;;14.68;7.45;;;;;;;19.84;65.52;101341.13;5032700;28;20400;-55
2021/08/15 09:01:18;;;;;;;13.05;6.45;;;;;;;19.89;65.10;101337.41;5032796;28;20041;-54
2021/08/15 09:03:46;;;;;;;11.95;5.75;;;;;;;19.98;64.75;101350.16;5032995;28;20045;-54
2021/08/15 09:06:25;;;;;;;13.50;6.00;;;;;;;20.04;63.58;101342.53;5031972;28;20554;-53
2021/08/15 09:08:53;;;;;;;13.60;5.45;;;;;;;20.10;63.42;101334.91;5032639;28;20048;-54
2021/08/15 09:11:24;;;;;;;13.30;6.35;;;;;;;20.15;63.11;101337.53;5032334;28;20037;-52
2021/08/15 09:14:30;;;;;;;13.23;6.00;;;;;;;20.18;62.84;101334.13;5032614;28;20365;-55
2021/08/15 09:17:08;;;;;;;11.27;5.30;;;;;;;20.21;63.50;101333.50;5031129;28;20088;-51
2021/08/15 09:19:38;;;;;;;11.35;5.43;;;;;;;20.25;62.88;101330.88;5032229;28;20092;-51
2021/08/15 09:22:23;;;;;;;10.57;5.13;;;;;;;20.29;63.38;101324.38;5030634;28;20072;-51
2021/08/15 09:24:55;;;;;;;12.25;5.57;;;;;;;20.35;63.13;101325.88;5032558;28;20057;-49
2021/08/15 09:27:28;;;;;;;9.18;4.65;;;;;;;20.41;62.81;101321.81;5032252;28;20052;-52
2021/08/15 09:30:24;;;;;;;10.68;5.60;;;;;;;20.47;62.34;101325.25;5032320;28;20053;-56
2021/08/15 09:32:57;;;;;;;11.63;5.70;;;;;;;20.52;62.41;101313.22;5038629;28;20048;-58
2021/08/15 09:35:28;;;;;;;11.18;5.35;;;;;;;20.56;62.59;101330.81;5038468;28;20041;-57
2021/08/15 09:38:02;;;;;;;11.18;5.50;;;;;;;20.60;62.54;101327.09;5032190;28;20044;-56
2021/08/15 09:40:33;;;;;;;9.20;5.00;;;;;;;20.66;62.01;101324.16;5032277;28;20037;-56
2021/08/15 09:43:04;;;;;;;11.35;5.03;;;;;;;20.71;61.51;101327.59;5031999;28;20033;-55
2021/08/15 09:45:39;;;;;;;9.50;4.60;;;;;;;20.78;61.12;101321.56;5031936;28;20060;-56
2021/08/15 09:48:29;;;;;;;11.05;4.57;;;;;;;20.82;61.12;101311.47;5031579;28;20038;-54
2021/08/15 09:51:15;;;;;;;11.68;5.30;;;;;;;20.85;61.55;101311.63;5031817;28;20049;-55
2021/08/15 09:54:19;;;;;;;9.50;4.93;;;;;;;20.94;61.44;101305.28;5042301;28;20053;-53
2021/08/15 09:56:47;;;;;;;8.60;4.38;;;;;;;20.99;61.55;101305.91;5032311;28;20053;-56
2021/08/15 09:59:19;;;;;;;7.90;3.92;;;;;;;21.07;60.92;101309.84;5031924;28;20041;-51
2021/08/15 10:01:49;;;;;;;13.32;4.80;;;;;;;21.15;60.29;101302.66;5038384;28;20044;-56
2021/08/15 10:04:17;;;;;;;9.98;4.30;;;;;;;21.18;60.34;101307.53;5038698;28;20049;-55
2021/08/15 10:06:47;;;;;;;11.75;4.65;;;;;;;21.19;60.07;101304.44;5031962;28;20041;-54
2021/08/15 10:09:15;;;;;;;7.07;3.67;;;;;;;21.27;59.13;101305.56;5031803;28;20435;-55
2021/08/15 10:11:43;;;;;;;8.15;4.00;;;;;;;21.33;58.23;101300.66;5031910;28;20088;-56
2021/08/15 10:14:11;;;;;;;8.95;3.90;;;;;;;21.38;57.52;101295.78;5031964;28;20042;-54
2021/08/15 10:16:42;;;;;;;8.43;3.50;;;;;;;21.39;57.42;101296.56;5031594;28;20049;-56
2021/08/15 10:19:14;;;;;;;10.20;4.03;;;;;;;21.45;57.67;101286.94;5030236;28;20404;-51
2021/08/15 10:21:45;;;;;;;11.25;4.15;;;;;;;21.48;57.46;101286.31;5030494;28;20049;-54
2021/08/15 10:24:14;;;;;;;9.95;3.92;;;;;;;21.51;57.21;101288.41;5031671;28;20049;-56
2021/08/15 10:26:47;;;;;;;8.35;4.10;;;;;;;21.59;57.63;101284.78;5032042;28;20045;-57
2021/08/15 10:29:37;;;;;;;7.10;3.63;;;;;;;21.64;57.22;101281.81;5033912;28;20053;-54
2021/08/15 10:32:09;;;;;;;7.88;3.40;;;;;;;21.68;56.77;101282.00;5034990;28;20500;-54
2021/08/15 10:34:51;;;;;;;7.97;3.40;;;;;;;21.71;56.38;101273.00;5041829;28;20051;-54
2021/08/15 10:37:27;;;;;;;9.60;3.90;;;;;;;21.77;56.02;101268.06;5040272;28;20041;-53
2021/08/15 10:40:03;;;;;;;9.52;3.50;;;;;;;21.80;56.43;101259.09;5035348;28;20046;-51
2021/08/15 10:42:41;;;;;;;10.65;4.20;;;;;;;21.89;55.99;101266.25;5035152;28;20041;-56
2021/08/15 10:45:13;;;;;;;10.65;3.90;;;;;;;21.90;56.24;101262.31;5035117;28;20136;-52
2021/08/15 10:47:41;;;;;;;8.15;3.75;;;;;;;21.93;56.12;101271.91;5034448;28;20056;-57
2021/08/15 10:50:09;;;;;;;7.18;3.90;;;;;;;21.94;55.96;101256.09;5035345;28;20048;-57
2021/08/15 10:52:40;;;;;;;8.18;3.60;;;;;;;21.98;55.38;101252.28;5035316;28;20060;-56
2021/08/15 10:55:13;;;;;;;7.32;3.40;;;;;;;22.01;56.06;101251.66;5035154;28;20068;-56
2021/08/15 10:57:42;;;;;;;7.50;3.38;;;;;;;22.05;55.40;101249.00;5034077;28;20052;-55
2021/08/15 11:00:31;;;;;;;6.50;3.50;;;;;;;22.11;54.40;101251.25;5034827;28;20037;-56
2021/08/15 11:03:12;;;;;;;8.27;3.90;;;;;;;22.16;54.51;101246.66;5034516;28;20041;-58
2021/08/15 11:05:40;;;;;;;12.15;3.80;;;;;;;22.22;53.85;101245.34;5035173;28;20137;-55
2021/08/15 11:08:33;;;;;;;10.65;3.92;;;;;;;22.31;54.01;101251.66;5037236;28;20045;-55
2021/08/15 11:11:07;;;;;;;8.90;3.90;;;;;;;22.31;54.34;101248.88;5042374;28;20061;-54
2021/08/15 11:13:36;;;;;;;7.35;3.50;;;;;;;22.31;53.98;101258.00;5034672;28;20046;-57
2021/08/15 11:16:25;;;;;;;9.90;3.85;;;;;;;22.37;52.92;101243.91;5034650;28;20057;-55
2021/08/15 11:19:08;;;;;;;8.98;3.60;;;;;;;22.42;52.97;101250.09;5042445;28;20079;-56
2021/08/15 11:22:05;;;;;;;8.60;3.80;;;;;;;22.46;53.12;101244.66;5039342;28;20045;-53
2021/08/15 11:24:45;;;;;;;9.07;3.97;;;;;;;22.55;52.32;101237.09;4472531;28;10000961;-54
2021/08/15 11:27:28;;;;;;;9.43;3.40;;;;;;;22.54;52.43;101224.38;5036503;28;20042;-55